sensor_id;sensor_type;location;lat;lon;timestamp;temperature;humidity
53643;DHT22;39546;45.534;12.048;2023-05-02T00:00:20;15.90;84.80
53643;DHT22;39546;45.534;12.048;2023-05-02T00:06:25;15.90;84.80
53643;DHT22;39546;45.534;12.048;2023-05-02T00:12:28;15.80;85.00
53643;DHT22;39546;45.534;12.048;2023-05-02T00:18:45;15.70;85.20
53643;DHT22;39546;45.534;12.048;2023-05-02T00:24:47;15.70;85.30
53643;DHT22;39546;45.534;12.048;2023-05-02T00:30:48;15.80;85.40
53643;DHT22;39546;45.534;12.048;2023-05-02T00:36:50;15.70;85.30
53643;DHT22;39546;45.534;12.048;2023-05-02T00:42:52;15.70;85.40
53643;DHT22;39546;45.534;12.048;2023-05-02T00:48:56;15.70;85.20
53643;DHT22;39546;45.534;12.048;2023-05-02T00:55:00;15.70;85.20
53643;DHT22;39546;45.534;12.048;2023-05-02T01:01:21;15.70;85.00
53643;DHT22;39546;45.534;12.048;2023-05-02T01:13:33;15.60;85.30
53643;DHT22;39546;45.534;12.048;2023-05-02T01:19:38;15.60;85.50
53643;DHT22;39546;45.534;12.048;2023-05-02T01:26:09;15.50;85.50
53643;DHT22;39546;45.534;12.048;2023-05-02T01:32:17;15.50;85.60
53643;DHT22;39546;45.534;12.048;2023-05-02T01:38:39;15.40;85.70
53643;DHT22;39546;45.534;12.048;2023-05-02T01:44:44;15.40;85.80
53643;DHT22;39546;45.534;12.048;2023-05-02T01:50:48;15.50;85.90
53643;DHT22;39546;45.534;12.048;2023-05-02T01:56:51;15.50;86.00
53643;DHT22;39546;45.534;12.048;2023-05-02T02:02:59;15.50;85.70
53643;DHT22;39546;45.534;12.048;2023-05-02T02:09:01;15.50;85.80
53643;DHT22;39546;45.534;12.048;2023-05-02T02:15:26;15.70;85.60
53643;DHT22;39546;45.534;12.048;2023-05-02T02:21:30;15.70;85.20
53643;DHT22;39546;45.534;12.048;2023-05-02T02:27:32;15.70;85.10
53643;DHT22;39546;45.534;12.048;2023-05-02T02:33:35;15.70;85.20
53643;DHT22;39546;45.534;12.048;2023-05-02T02:46:18;15.70;85.50
53643;DHT22;39546;45.534;12.048;2023-05-02T02:52:47;15.70;85.40
53643;DHT22;39546;45.534;12.048;2023-05-02T02:59:08;15.70;85.50
53643;DHT22;39546;45.534;12.048;2023-05-02T03:05:14;15.70;85.60
53643;DHT22;39546;45.534;12.048;2023-05-02T03:11:45;15.70;85.70
53643;DHT22;39546;45.534;12.048;2023-05-02T03:17:48;15.70;85.70
53643;DHT22;39546;45.534;12.048;2023-05-02T03:24:13;15.60;85.70
53643;DHT22;39546;45.534;12.048;2023-05-02T03:30:16;15.60;85.90
53643;DHT22;39546;45.534;12.048;2023-05-02T03:36:18;15.50;85.90
53643;DHT22;39546;45.534;12.048;2023-05-02T03:42:21;15.50;86.10
53643;DHT22;39546;45.534;12.048;2023-05-02T03:48:24;15.50;86.10
53643;DHT22;39546;45.534;12.048;2023-05-02T03:54:31;15.60;86.10
53643;DHT22;39546;45.534;12.048;2023-05-02T04:00:34;15.60;86.00
53643;DHT22;39546;45.534;12.048;2023-05-02T04:06:37;15.60;85.90
53643;DHT22;39546;45.534;12.048;2023-05-02T04:12:40;15.60;86.00
53643;DHT22;39546;45.534;12.048;2023-05-02T04:18:42;15.60;86.00
53643;DHT22;39546;45.534;12.048;2023-05-02T04:24:45;15.60;85.90
53643;DHT22;39546;45.534;12.048;2023-05-02T04:30:51;15.60;86.00
53643;DHT22;39546;45.534;12.048;2023-05-02T04:37:00;15.60;86.00
53643;DHT22;39546;45.534;12.048;2023-05-02T04:43:08;15.50;86.10
53643;DHT22;39546;45.534;12.048;2023-05-02T04:49:12;15.50;86.10
53643;DHT22;39546;45.534;12.048;2023-05-02T04:55:14;15.50;86.20
53643;DHT22;39546;45.534;12.048;2023-05-02T05:01:17;15.50;86.20
53643;DHT22;39546;45.534;12.048;2023-05-02T05:07:21;15.50;86.20
53643;DHT22;39546;45.534;12.048;2023-05-02T05:13:23;15.50;86.30
53643;DHT22;39546;45.534;12.048;2023-05-02T05:19:26;15.50;86.30
53643;DHT22;39546;45.534;12.048;2023-05-02T05:25:30;15.50;86.30
53643;DHT22;39546;45.534;12.048;2023-05-02T05:31:32;15.40;86.40
53643;DHT22;39546;45.534;12.048;2023-05-02T05:37:35;15.30;86.40
53643;DHT22;39546;45.534;12.048;2023-05-02T05:44:04;15.40;86.50
53643;DHT22;39546;45.534;12.048;2023-05-02T05:50:07;15.30;86.50
53643;DHT22;39546;45.534;12.048;2023-05-02T05:56:10;15.30;86.50
53643;DHT22;39546;45.534;12.048;2023-05-02T06:02:14;15.30;86.70
53643;DHT22;39546;45.534;12.048;2023-05-02T06:08:19;15.30;86.60
53643;DHT22;39546;45.534;12.048;2023-05-02T06:14:22;15.30;86.70
53643;DHT22;39546;45.534;12.048;2023-05-02T06:20:25;15.30;86.70
53643;DHT22;39546;45.534;12.048;2023-05-02T06:26:28;15.30;86.80
53643;DHT22;39546;45.534;12.048;2023-05-02T06:32:30;15.30;86.80
53643;DHT22;39546;45.534;12.048;2023-05-02T06:38:32;15.30;86.90
53643;DHT22;39546;45.534;12.048;2023-05-02T06:44:35;15.30;87.00
53643;DHT22;39546;45.534;12.048;2023-05-02T06:50:44;15.30;86.80
53643;DHT22;39546;45.534;12.048;2023-05-02T06:56:46;15.30;86.80
53643;DHT22;39546;45.534;12.048;2023-05-02T07:03:11;15.30;87.00
53643;DHT22;39546;45.534;12.048;2023-05-02T07:09:14;15.30;87.00
53643;DHT22;39546;45.534;12.048;2023-05-02T07:15:16;15.30;87.00
53643;DHT22;39546;45.534;12.048;2023-05-02T07:21:38;15.30;87.10
53643;DHT22;39546;45.534;12.048;2023-05-02T07:27:40;15.30;87.10
53643;DHT22;39546;45.534;12.048;2023-05-02T07:33:42;15.40;87.10
53643;DHT22;39546;45.534;12.048;2023-05-02T07:39:44;15.50;87.10
53643;DHT22;39546;45.534;12.048;2023-05-02T07:45:46;15.50;86.90
53643;DHT22;39546;45.534;12.048;2023-05-02T07:51:48;15.40;87.00
53643;DHT22;39546;45.534;12.048;2023-05-02T07:57:50;15.40;87.20
53643;DHT22;39546;45.534;12.048;2023-05-02T08:03:52;15.40;87.30
53643;DHT22;39546;45.534;12.048;2023-05-02T08:09:54;15.40;87.40
53643;DHT22;39546;45.534;12.048;2023-05-02T08:15:56;15.40;87.30
53643;DHT22;39546;45.534;12.048;2023-05-02T08:22:00;15.40;87.30
53643;DHT22;39546;45.534;12.048;2023-05-02T08:28:03;15.40;87.40
53643;DHT22;39546;45.534;12.048;2023-05-02T08:34:05;15.50;87.50
53643;DHT22;39546;45.534;12.048;2023-05-02T08:40:10;15.50;87.40
53643;DHT22;39546;45.534;12.048;2023-05-02T08:46:14;15.60;87.50
53643;DHT22;39546;45.534;12.048;2023-05-02T08:52:19;15.60;87.40
53643;DHT22;39546;45.534;12.048;2023-05-02T08:58:21;15.70;87.40
53643;DHT22;39546;45.534;12.048;2023-05-02T09:04:23;15.70;87.50
53643;DHT22;39546;45.534;12.048;2023-05-02T09:10:30;15.70;87.40
53643;DHT22;39546;45.534;12.048;2023-05-02T09:16:37;15.70;87.50
53643;DHT22;39546;45.534;12.048;2023-05-02T09:22:49;15.70;87.50
53643;DHT22;39546;45.534;12.048;2023-05-02T09:28:54;15.80;87.60
53643;DHT22;39546;45.534;12.048;2023-05-02T09:35:06;15.80;87.50
53643;DHT22;39546;45.534;12.048;2023-05-02T09:41:08;15.90;87.70
53643;DHT22;39546;45.534;12.048;2023-05-02T09:47:23;15.80;87.70
53643;DHT22;39546;45.534;12.048;2023-05-02T09:53:27;15.90;87.90
53643;DHT22;39546;45.534;12.048;2023-05-02T09:59:29;16.00;88.00
53643;DHT22;39546;45.534;12.048;2023-05-02T10:05:32;16.00;87.80
53643;DHT22;39546;45.534;12.048;2023-05-02T10:11:46;16.20;87.70
53643;DHT22;39546;45.534;12.048;2023-05-02T10:17:48;16.20;87.70
53643;DHT22;39546;45.534;12.048;2023-05-02T10:23:51;16.30;87.60
53643;DHT22;39546;45.534;12.048;2023-05-02T10:29:57;16.30;87.60
53643;DHT22;39546;45.534;12.048;2023-05-02T10:35:59;16.30;87.60
53643;DHT22;39546;45.534;12.048;2023-05-02T10:42:03;16.30;87.60
53643;DHT22;39546;45.534;12.048;2023-05-02T10:48:13;16.30;87.60
53643;DHT22;39546;45.534;12.048;2023-05-02T11:00:20;16.30;87.40
53643;DHT22;39546;45.534;12.048;2023-05-02T11:06:27;16.30;87.20
53643;DHT22;39546;45.534;12.048;2023-05-02T11:12:49;16.30;87.00
53643;DHT22;39546;45.534;12.048;2023-05-02T11:18:57;16.30;86.80
53643;DHT22;39546;45.534;12.048;2023-05-02T11:25:01;16.20;86.70
53643;DHT22;39546;45.534;12.048;2023-05-02T11:31:08;16.20;86.90
53643;DHT22;39546;45.534;12.048;2023-05-02T11:37:14;16.20;87.00
53643;DHT22;39546;45.534;12.048;2023-05-02T11:43:17;16.20;86.90
53643;DHT22;39546;45.534;12.048;2023-05-02T11:49:20;16.20;86.90
53643;DHT22;39546;45.534;12.048;2023-05-02T11:55:22;16.30;86.70
53643;DHT22;39546;45.534;12.048;2023-05-02T12:01:24;16.30;86.90
53643;DHT22;39546;45.534;12.048;2023-05-02T12:07:43;16.30;87.10
53643;DHT22;39546;45.534;12.048;2023-05-02T12:13:47;16.30;87.20
53643;DHT22;39546;45.534;12.048;2023-05-02T12:19:50;16.30;87.20
53643;DHT22;39546;45.534;12.048;2023-05-02T12:25:52;16.30;87.10
53643;DHT22;39546;45.534;12.048;2023-05-02T12:31:54;16.40;87.10
53643;DHT22;39546;45.534;12.048;2023-05-02T12:38:29;16.50;87.00
53643;DHT22;39546;45.534;12.048;2023-05-02T12:44:42;16.60;87.00
53643;DHT22;39546;45.534;12.048;2023-05-02T12:50:44;16.50;87.00
53643;DHT22;39546;45.534;12.048;2023-05-02T12:56:46;16.60;86.90
53643;DHT22;39546;45.534;12.048;2023-05-02T13:02:49;16.60;86.90
53643;DHT22;39546;45.534;12.048;2023-05-02T13:08:51;16.60;87.20
53643;DHT22;39546;45.534;12.048;2023-05-02T13:14:53;16.50;87.30
53643;DHT22;39546;45.534;12.048;2023-05-02T13:20:55;16.50;87.30
53643;DHT22;39546;45.534;12.048;2023-05-02T13:26:57;16.50;87.10
53643;DHT22;39546;45.534;12.048;2023-05-02T13:32:59;16.40;87.00
53643;DHT22;39546;45.534;12.048;2023-05-02T13:39:01;16.40;87.00
53643;DHT22;39546;45.534;12.048;2023-05-02T13:45:04;16.40;87.10
53643;DHT22;39546;45.534;12.048;2023-05-02T13:51:07;16.30;87.00
53643;DHT22;39546;45.534;12.048;2023-05-02T13:57:09;16.30;87.00
53643;DHT22;39546;45.534;12.048;2023-05-02T14:03:12;16.30;87.30
53643;DHT22;39546;45.534;12.048;2023-05-02T14:09:14;16.30;87.20
53643;DHT22;39546;45.534;12.048;2023-05-02T14:15:17;16.40;87.30
53643;DHT22;39546;45.534;12.048;2023-05-02T14:21:20;16.40;87.30
53643;DHT22;39546;45.534;12.048;2023-05-02T14:27:22;16.50;87.20
53643;DHT22;39546;45.534;12.048;2023-05-02T14:33:24;16.50;87.20
53643;DHT22;39546;45.534;12.048;2023-05-02T14:39:27;16.50;87.10
53643;DHT22;39546;45.534;12.048;2023-05-02T14:45:29;16.50;86.90
53643;DHT22;39546;45.534;12.048;2023-05-02T14:51:31;16.60;87.00
53643;DHT22;39546;45.534;12.048;2023-05-02T14:57:33;16.60;87.30
53643;DHT22;39546;45.534;12.048;2023-05-02T15:03:35;16.60;87.20
53643;DHT22;39546;45.534;12.048;2023-05-02T15:09:40;16.70;87.20
53643;DHT22;39546;45.534;12.048;2023-05-02T15:15:45;16.70;87.00
53643;DHT22;39546;45.534;12.048;2023-05-02T15:21:48;16.70;86.90
53643;DHT22;39546;45.534;12.048;2023-05-02T15:27:50;16.70;86.80
53643;DHT22;39546;45.534;12.048;2023-05-02T15:33:53;16.70;86.70
53643;DHT22;39546;45.534;12.048;2023-05-02T15:39:55;16.70;86.70
53643;DHT22;39546;45.534;12.048;2023-05-02T15:45:58;16.70;86.60
53643;DHT22;39546;45.534;12.048;2023-05-02T15:52:01;16.80;86.40
53643;DHT22;39546;45.534;12.048;2023-05-02T15:58:03;16.80;86.30
53643;DHT22;39546;45.534;12.048;2023-05-02T16:04:06;16.80;86.20
53643;DHT22;39546;45.534;12.048;2023-05-02T16:10:10;16.80;86.20
53643;DHT22;39546;45.534;12.048;2023-05-02T16:16:12;16.80;86.00
53643;DHT22;39546;45.534;12.048;2023-05-02T16:22:14;16.80;86.00
53643;DHT22;39546;45.534;12.048;2023-05-02T16:28:17;16.80;86.00
53643;DHT22;39546;45.534;12.048;2023-05-02T16:34:19;16.80;86.00
53643;DHT22;39546;45.534;12.048;2023-05-02T16:40:21;16.80;86.00
53643;DHT22;39546;45.534;12.048;2023-05-02T16:46:23;16.70;85.90
53643;DHT22;39546;45.534;12.048;2023-05-02T16:52:26;16.70;85.90
53643;DHT22;39546;45.534;12.048;2023-05-02T16:58:28;16.70;85.90
53643;DHT22;39546;45.534;12.048;2023-05-02T17:04:30;16.60;85.80
53643;DHT22;39546;45.534;12.048;2023-05-02T17:10:32;16.60;86.00
53643;DHT22;39546;45.534;12.048;2023-05-02T17:16:35;16.50;86.00
53643;DHT22;39546;45.534;12.048;2023-05-02T17:22:37;16.40;86.00
53643;DHT22;39546;45.534;12.048;2023-05-02T17:28:42;16.30;86.00
53643;DHT22;39546;45.534;12.048;2023-05-02T17:34:45;16.30;86.00
53643;DHT22;39546;45.534;12.048;2023-05-02T17:40:47;16.20;86.00
53643;DHT22;39546;45.534;12.048;2023-05-02T17:46:49;16.20;86.00
53643;DHT22;39546;45.534;12.048;2023-05-02T17:52:52;16.20;85.70
53643;DHT22;39546;45.534;12.048;2023-05-02T17:58:54;16.10;85.60
53643;DHT22;39546;45.534;12.048;2023-05-02T18:04:57;16.00;85.70
53643;DHT22;39546;45.534;12.048;2023-05-02T18:11:01;16.00;85.80
53643;DHT22;39546;45.534;12.048;2023-05-02T18:17:04;16.00;85.90
53643;DHT22;39546;45.534;12.048;2023-05-02T18:23:06;16.00;85.80
53643;DHT22;39546;45.534;12.048;2023-05-02T18:29:08;15.90;85.80
53643;DHT22;39546;45.534;12.048;2023-05-02T18:35:10;15.80;85.70
53643;DHT22;39546;45.534;12.048;2023-05-02T18:41:13;15.80;85.70
53643;DHT22;39546;45.534;12.048;2023-05-02T18:47:15;15.80;85.70
53643;DHT22;39546;45.534;12.048;2023-05-02T18:53:18;15.90;85.70
53643;DHT22;39546;45.534;12.048;2023-05-02T18:59:23;15.90;85.80
53643;DHT22;39546;45.534;12.048;2023-05-02T19:05:25;15.90;85.90
53643;DHT22;39546;45.534;12.048;2023-05-02T19:11:28;15.90;85.90
53643;DHT22;39546;45.534;12.048;2023-05-02T19:17:30;15.90;86.00
53643;DHT22;39546;45.534;12.048;2023-05-02T19:23:32;16.00;85.90
53643;DHT22;39546;45.534;12.048;2023-05-02T19:29:36;16.00;85.90
53643;DHT22;39546;45.534;12.048;2023-05-02T19:35:38;15.90;86.00
53643;DHT22;39546;45.534;12.048;2023-05-02T19:41:41;15.90;86.00
53643;DHT22;39546;45.534;12.048;2023-05-02T19:47:43;16.00;86.00
53643;DHT22;39546;45.534;12.048;2023-05-02T19:53:46;15.90;85.90
53643;DHT22;39546;45.534;12.048;2023-05-02T19:59:48;15.90;86.00
53643;DHT22;39546;45.534;12.048;2023-05-02T20:05:51;15.90;86.20
53643;DHT22;39546;45.534;12.048;2023-05-02T20:11:53;15.90;86.20
53643;DHT22;39546;45.534;12.048;2023-05-02T20:17:56;15.90;86.20
53643;DHT22;39546;45.534;12.048;2023-05-02T20:23:59;15.80;86.30
53643;DHT22;39546;45.534;12.048;2023-05-02T20:30:01;15.80;86.30
53643;DHT22;39546;45.534;12.048;2023-05-02T20:36:03;15.80;86.20
53643;DHT22;39546;45.534;12.048;2023-05-02T20:42:06;15.80;86.10
53643;DHT22;39546;45.534;12.048;2023-05-02T20:48:08;15.80;86.20
53643;DHT22;39546;45.534;12.048;2023-05-02T20:54:10;15.80;86.00
53643;DHT22;39546;45.534;12.048;2023-05-02T21:00:13;15.80;86.10
53643;DHT22;39546;45.534;12.048;2023-05-02T21:06:18;15.80;86.10
53643;DHT22;39546;45.534;12.048;2023-05-02T21:12:21;15.80;86.00
53643;DHT22;39546;45.534;12.048;2023-05-02T21:18:24;15.80;86.10
53643;DHT22;39546;45.534;12.048;2023-05-02T21:24:26;15.80;86.20
53643;DHT22;39546;45.534;12.048;2023-05-02T21:30:28;15.70;86.20
53643;DHT22;39546;45.534;12.048;2023-05-02T21:36:30;15.70;86.50
53643;DHT22;39546;45.534;12.048;2023-05-02T21:42:33;15.70;86.60
53643;DHT22;39546;45.534;12.048;2023-05-02T21:48:35;15.60;86.60
53643;DHT22;39546;45.534;12.048;2023-05-02T21:54:37;15.70;86.60
53643;DHT22;39546;45.534;12.048;2023-05-02T22:00:40;15.70;86.60
53643;DHT22;39546;45.534;12.048;2023-05-02T22:06:50;15.70;86.60
53643;DHT22;39546;45.534;12.048;2023-05-02T22:12:52;15.60;86.60
53643;DHT22;39546;45.534;12.048;2023-05-02T22:18:54;15.60;86.70
53643;DHT22;39546;45.534;12.048;2023-05-02T22:24:58;15.60;86.80
53643;DHT22;39546;45.534;12.048;2023-05-02T22:31:04;15.60;86.70
53643;DHT22;39546;45.534;12.048;2023-05-02T22:37:07;15.60;86.60
53643;DHT22;39546;45.534;12.048;2023-05-02T22:43:09;15.70;86.50
53643;DHT22;39546;45.534;12.048;2023-05-02T22:49:11;15.70;86.60
53643;DHT22;39546;45.534;12.048;2023-05-02T22:55:13;15.70;86.80
53643;DHT22;39546;45.534;12.048;2023-05-02T23:01:15;15.60;86.70
53643;DHT22;39546;45.534;12.048;2023-05-02T23:07:17;15.60;86.70
53643;DHT22;39546;45.534;12.048;2023-05-02T23:13:19;15.60;86.60
53643;DHT22;39546;45.534;12.048;2023-05-02T23:19:21;15.60;86.60
53643;DHT22;39546;45.534;12.048;2023-05-02T23:25:25;15.60;86.60
53643;DHT22;39546;45.534;12.048;2023-05-02T23:31:28;15.60;86.60
53643;DHT22;39546;45.534;12.048;2023-05-02T23:37:32;15.50;86.60
53643;DHT22;39546;45.534;12.048;2023-05-02T23:43:34;15.60;86.60
53643;DHT22;39546;45.534;12.048;2023-05-02T23:49:36;15.60;86.60
53643;DHT22;39546;45.534;12.048;2023-05-02T23:55:38;15.60;86.70
